Time,TemperatureF,DewpointF,PressureIn,WindDirection,WindDirectionDegrees,WindSpeedMPH,WindSpeedGustMPH,Humidity,HourlyPrecipIn,Conditions,Clouds,dailyrainin,SoftwareType,DateUTC
2017-05-29 00:04:00,63.2,60.0,29.77,SW,227,3.0,8.0,90,0.01,,,0.00,weatherlink.com 1.10,2017-05-29 04:04:00,
2017-05-29 00:19:00,62.9,60.0,29.77,South,191,3.0,10.0,91,0.00,,,0.00,weatherlink.com 1.10,2017-05-29 04:19:00,
2017-05-29 00:34:00,62.9,60.0,29.76,SSW,211,1.0,8.0,91,0.00,,,0.00,weatherlink.com 1.10,2017-05-29 04:34:00,
2017-05-29 00:49:00,62.7,60.0,29.75,SW,229,0.0,5.0,91,0.00,,,0.00,weatherlink.com 1.10,2017-05-29 04:49:00,
2017-05-29 01:04:00,62.5,60.0,29.76,SW,229,2.0,6.0,92,0.00,,,0.00,weatherlink.com 1.10,2017-05-29 05:04:00,
2017-05-29 01:19:00,62.3,60.0,29.77,WSW,238,3.0,7.0,92,0.00,,,0.00,weatherlink.com 1.10,2017-05-29 05:19:00,
2017-05-29 01:35:00,62.2,60.0,29.78,SSW,205,4.0,7.0,93,0.00,,,0.00,weatherlink.com 1.10,2017-05-29 05:35:00,
2017-05-29 01:49:00,62.0,60.0,29.77,SSW,196,2.0,7.0,93,0.00,,,0.00,weatherlink.com 1.10,2017-05-29 05:49:00,
2017-05-29 02:04:00,61.7,60.0,29.78,West,262,3.0,7.0,93,0.00,,,0.00,weatherlink.com 1.10,2017-05-29 06:04:00,
2017-05-29 02:20:00,61.4,59.0,29.79,SW,221,2.0,7.0,93,0.00,,,0.00,weatherlink.com 1.10,2017-05-29 06:20:00,
2017-05-29 02:35:00,61.2,60.0,29.79,South,188,4.0,5.0,94,0.00,,,0.00,weatherlink.com 1.10,2017-05-29 06:35:00,
2017-05-29 02:50:00,61.0,59.0,29.79,SSW,195,3.0,5.0,94,0.00,,,0.00,weatherlink.com 1.10,2017-05-29 06:50:00,
2017-05-29 03:05:00,60.9,59.0,29.79,SW,220,2.0,7.0,94,0.00,,,0.00,weatherlink.com 1.10,2017-05-29 07:05:00,
2017-05-29 03:20:00,60.8,59.0,29.79,SSE,164,0.0,5.0,94,0.00,,,0.00,weatherlink.com 1.10,2017-05-29 07:20:00,
2017-05-29 03:35:00,60.6,59.0,29.78,South,190,1.0,3.0,94,0.00,,,0.00,weatherlink.com 1.10,2017-05-29 07:35:00,
2017-05-29 03:50:00,60.3,59.0,29.78,South,178,0.0,2.0,94,0.00,,,0.00,weatherlink.com 1.10,2017-05-29 07:50:00,
2017-05-29 04:05:00,60.1,58.0,29.78,South,180,1.0,3.0,94,0.00,,,0.00,weatherlink.com 1.10,2017-05-29 08:05:00,
2017-05-29 04:20:00,59.9,58.0,29.79,SSE,163,1.0,4.0,94,0.01,,,0.01,weatherlink.com 1.10,2017-05-29 08:20:00,
2017-05-29 04:35:00,59.7,58.0,29.79,WSW,244,1.0,2.0,94,0.01,,,0.01,weatherlink.com 1.10,2017-05-29 08:35:00,
2017-05-29 04:50:00,59.6,58.0,29.79,WSW,244,0.0,3.0,95,0.01,,,0.01,weatherlink.com 1.10,2017-05-29 08:50:00,
2017-05-29 05:05:00,59.5,58.0,29.80,South,186,1.0,4.0,95,0.01,,,0.01,weatherlink.com 1.10,2017-05-29 09:05:00,
2017-05-29 05:20:00,59.6,58.0,29.81,SSW,200,0.0,4.0,95,0.00,,,0.01,weatherlink.com 1.10,2017-05-29 09:20:00,
2017-05-29 05:35:00,59.6,58.0,29.81,SSW,196,3.0,3.0,95,0.00,,,0.01,weatherlink.com 1.10,2017-05-29 09:35:00,
2017-05-29 05:50:00,59.5,58.0,29.82,South,190,2.0,3.0,95,0.00,,,0.01,weatherlink.com 1.10,2017-05-29 09:50:00,
2017-05-29 06:05:00,59.4,58.0,29.82,South,182,1.0,5.0,95,0.00,,,0.01,weatherlink.com 1.10,2017-05-29 10:05:00,
2017-05-29 06:20:00,59.5,58.0,29.83,South,169,2.0,5.0,95,0.00,,,0.01,weatherlink.com 1.10,2017-05-29 10:20:00,
2017-05-29 06:35:00,59.6,59.0,29.84,South,188,1.0,5.0,96,0.00,,,0.01,weatherlink.com 1.10,2017-05-29 10:35:00,
2017-05-29 06:50:00,59.6,59.0,29.85,SSW,196,1.0,6.0,96,0.00,,,0.01,weatherlink.com 1.10,2017-05-29 10:50:00,
2017-05-29 07:05:00,60.4,59.0,29.86,SSE,147,4.0,7.0,96,0.00,,,0.01,weatherlink.com 1.10,2017-05-29 11:05:00,
2017-05-29 07:21:00,60.9,60.0,29.86,SSW,211,2.0,7.0,96,0.00,,,0.01,weatherlink.com 1.10,2017-05-29 11:21:00,
2017-05-29 07:35:00,61.3,60.0,29.86,South,181,2.0,5.0,96,0.00,,,0.01,weatherlink.com 1.10,2017-05-29 11:35:00,
2017-05-29 07:50:00,61.9,61.0,29.86,WSW,238,2.0,5.0,96,0.00,,,0.01,weatherlink.com 1.10,2017-05-29 11:50:00,
2017-05-29 08:05:00,62.6,62.0,29.86,WSW,256,1.0,4.0,96,0.00,,,0.01,weatherlink.com 1.10,2017-05-29 12:05:00,
2017-05-29 08:20:00,63.2,62.0,29.87,SW,235,5.0,6.0,96,0.00,,,0.01,weatherlink.com 1.10,2017-05-29 12:20:00,
2017-05-29 08:35:00,64.0,63.0,29.86,SW,232,2.0,8.0,95,0.00,,,0.01,weatherlink.com 1.10,2017-05-29 12:35:00,
2017-05-29 08:50:00,65.0,63.0,29.86,WSW,238,2.0,8.0,92,0.00,,,0.01,weatherlink.com 1.10,2017-05-29 12:50:00,
2017-05-29 09:05:00,66.4,63.0,29.85,West,259,2.0,7.0,88,0.00,,,0.01,weatherlink.com 1.10,2017-05-29 13:05:00,
2017-05-29 09:20:00,67.7,63.0,29.86,SSW,207,3.0,6.0,84,0.00,,,0.01,weatherlink.com 1.10,2017-05-29 13:20:00,
2017-05-29 09:35:00,68.4,63.0,29.86,WSW,254,2.0,6.0,82,0.00,,,0.01,weatherlink.com 1.10,2017-05-29 13:35:00,
2017-05-29 09:50:00,69.6,62.0,29.86,South,187,4.0,7.0,78,0.00,,,0.01,weatherlink.com 1.10,2017-05-29 13:50:00,
2017-05-29 10:06:00,70.2,62.0,29.86,SW,217,6.0,8.0,76,0.00,,,0.01,weatherlink.com 1.10,2017-05-29 14:06:00,
2017-05-29 10:21:00,71.0,63.0,29.86,SW,221,6.0,7.0,75,0.00,,,0.01,weatherlink.com 1.10,2017-05-29 14:21:00,